Time;durP1;ratioP1;P1;durP2;ratioP2;P2;SDS_P1;SDS_P2;PMS_P1;PMS_P2;Temp;Humidity;BMP_temperature;BMP_pressure;BME280_temperature;BME280_humidity;BME280_pressure;Samples;Min_cycle;Max_cycle;Signal;HPM_P1;HPM_P2
2022/11/15 00:00:54;;;;;;;11.90;4.53;;;;;;;8.76;100.00;99914.97;5045876;28;20448;-52
2022/11/15 00:03:24;;;;;;;2.90;2.70;;;;;;;8.70;100.00;99910.72;5043596;28;20454;-53
2022/11/15 00:05:50;;;;;;;7.10;3.53;;;;;;;8.70;100.00;99904.56;5038746;28;20516;-52
2022/11/15 00:08:17;;;;;;;4.70;4.30;;;;;;;8.72;100.00;99908.91;5040598;28;20482;-53
2022/11/15 00:10:54;;;;;;;3.70;3.40;;;;;;;8.69;100.00;99908.13;5045428;28;20497;-52
2022/11/15 00:13:21;;;;;;;4.10;3.80;;;;;;;8.76;100.00;99904.38;5045407;28;20457;-53
2022/11/15 00:15:47;;;;;;;12.53;5.77;;;;;;;8.84;100.00;99905.06;5038911;28;20457;-52
2022/11/15 00:18:15;;;;;;;4.30;2.73;;;;;;;8.78;100.00;99898.16;5038553;28;20479;-53
2022/11/15 00:20:42;;;;;;;4.03;3.73;;;;;;;8.93;100.00;99891.56;5045143;28;20459;-53
2022/11/15 00:23:09;;;;;;;3.97;2.87;;;;;;;9.02;100.00;99893.91;5045038;28;21023;-52
2022/11/15 00:25:35;;;;;;;4.10;3.77;;;;;;;9.01;100.00;99896.63;5039424;28;20524;-52
2022/11/15 00:28:03;;;;;;;6.00;2.93;;;;;;;9.04;100.00;99892.09;5038397;28;20491;-53
2022/11/15 00:30:43;;;;;;;5.60;5.10;;;;;;;9.13;100.00;99883.88;5000156;28;20497;-52
2022/11/15 00:33:09;;;;;;;5.00;3.40;;;;;;;9.09;100.00;99879.59;4994175;28;21090;-53
2022/11/15 00:35:36;;;;;;;5.00;4.60;;;;;;;9.11;100.00;99891.03;4999532;28;20990;-52
2022/11/15 00:38:02;;;;;;;4.33;4.03;;;;;;;9.00;100.00;99889.59;5003029;28;20474;-52
2022/11/15 00:40:29;;;;;;;5.97;3.43;;;;;;;8.99;100.00;99888.72;5003854;28;20540;-52
2022/11/15 00:42:56;;;;;;;3.47;3.23;;;;;;;8.96;100.00;99888.81;5003939;28;20502;-53
2022/11/15 00:45:23;;;;;;;4.43;4.03;;;;;;;8.89;100.00;99897.84;4999519;28;20461;-53
2022/11/15 00:47:49;;;;;;;6.80;6.20;;;;;;;8.85;100.00;99893.53;4999900;28;20534;-52
2022/11/15 00:50:16;;;;;;;9.67;4.70;;;;;;;8.78;100.00;99897.28;4997388;28;20493;-53
2022/11/15 00:52:43;;;;;;;4.10;3.80;;;;;;;8.79;100.00;99899.88;5002323;28;20527;-52
2022/11/15 00:55:17;;;;;;;4.40;4.20;;;;;;;8.78;100.00;99897.28;5000697;28;20503;-53
2022/11/15 00:57:44;;;;;;;13.23;6.20;;;;;;;8.80;100.00;99904.28;4978036;28;20495;-53
2022/11/15 01:00:11;;;;;;;15.93;4.87;;;;;;;8.80;100.00;99892.81;5002240;28;20519;-52
2022/11/15 01:02:37;;;;;;;5.83;3.60;;;;;;;8.78;100.00;99887.56;4995795;28;20454;-53
2022/11/15 01:05:04;;;;;;;4.40;3.40;;;;;;;8.80;100.00;99885.72;4996395;28;20460;-53
2022/11/15 01:07:31;;;;;;;11.53;6.40;;;;;;;8.72;100.00;99881.53;5014067;28;20526;-52
2022/11/15 01:09:57;;;;;;;20.37;4.00;;;;;;;8.52;100.00;99880.31;5044322;28;20497;-52
2022/11/15 01:12:24;;;;;;;3.93;3.73;;;;;;;8.47;100.00;99879.53;5037522;28;20872;-52
2022/11/15 01:14:50;;;;;;;5.67;5.27;;;;;;;8.45;100.00;99873.44;5038049;28;20452;-52
2022/11/15 01:17:16;;;;;;;10.17;3.83;;;;;;;8.63;100.00;99880.00;5043979;28;20843;-52
2022/11/15 01:19:43;;;;;;;8.33;5.53;;;;;;;8.72;100.00;99866.50;5031138;28;20458;-52
2022/11/15 01:22:09;;;;;;;6.23;4.97;;;;;;;8.76;100.00;99868.16;5024396;28;20940;-53
2022/11/15 01:24:36;;;;;;;4.30;3.53;;;;;;;8.83;100.00;99874.16;5037396;28;20873;-53
2022/11/15 01:27:02;;;;;;;5.03;4.73;;;;;;;8.79;100.00;99868.09;5024539;28;20493;-53
2022/11/15 01:29:28;;;;;;;4.70;4.27;;;;;;;8.84;100.00;99865.31;5037222;28;20451;-52
2022/11/15 01:31:55;;;;;;;5.17;4.67;;;;;;;8.84;100.00;99860.88;5043391;28;20455;-52
2022/11/15 01:34:21;;;;;;;6.30;4.93;;;;;;;8.83;100.00;99856.47;5043680;28;20959;-53
2022/11/15 01:36:47;;;;;;;4.83;4.00;;;;;;;9.08;100.00;99855.78;5037990;28;21293;-52
2022/11/15 01:39:15;;;;;;;4.50;4.10;;;;;;;8.95;100.00;99857.06;5036686;28;20475;-52
2022/11/15 01:41:41;;;;;;;4.53;4.13;;;;;;;9.01;100.00;99862.16;5042730;28;20857;-53
2022/11/15 01:44:49;;;;;;;5.50;4.50;;;;;;;9.25;100.00;99860.56;5043947;28;20455;-53
2022/11/15 01:47:20;;;;;;;9.53;2.80;;;;;;;9.16;100.00;99851.97;5016959;28;20476;-53
2022/11/15 01:49:54;;;;;;;4.60;4.17;;;;;;;9.59;100.00;99849.78;5043577;28;20448;-52
2022/11/15 01:52:23;;;;;;;3.53;3.27;;;;;;;9.24;100.00;99853.53;5043520;28;20442;-53
2022/11/15 01:54:56;;;;;;;9.00;3.20;;;;;;;9.31;100.00;99850.63;5038644;28;20451;-52
2022/11/15 01:57:22;;;;;;;3.63;2.77;;;;;;;9.20;100.00;99848.34;5036788;28;20909;-53
2022/11/15 01:59:49;;;;;;;3.27;2.63;;;;;;;9.10;100.00;99849.50;5040669;28;20456;-53
2022/11/15 02:02:15;;;;;;;3.87;3.67;;;;;;;9.19;100.00;99848.38;5042419;28;20514;-53
2022/11/15 02:04:45;;;;;;;6.40;3.57;;;;;;;9.13;100.00;99840.59;5039324;28;20505;-53
2022/11/15 02:07:15;;;;;;;14.93;4.33;;;;;;;9.06;100.00;99839.06;5036218;28;20497;-52
2022/11/15 02:09:43;;;;;;;7.93;6.30;;;;;;;9.06;100.00;99831.97;5039563;28;20815;-52
2022/11/15 02:12:13;;;;;;;3.73;3.33;;;;;;;9.08;100.00;99837.22;5047078;28;20454;-53
2022/11/15 02:14:42;;;;;;;5.03;4.27;;;;;;;9.04;100.00;99833.78;5038770;28;20452;-52
2022/11/15 02:17:17;;;;;;;5.10;4.13;;;;;;;8.99;100.00;99834.84;5042848;28;20451;-52
2022/11/15 02:19:59;;;;;;;5.10;4.70;;;;;;;8.93;100.00;99829.72;5042274;28;20446;-52
2022/11/15 02:22:42;;;;;;;2.83;2.63;;;;;;;8.91;100.00;99827.13;5025706;28;20477;-53
2022/11/15 02:25:11;;;;;;;6.60;4.57;;;;;;;8.86;100.00;99819.28;5036047;28;20530;-52
2022/11/15 02:27:55;;;;;;;4.40;4.20;;;;;;;8.63;100.00;99816.41;5039600;28;20487;-54
2022/11/15 02:30:23;;;;;;;3.57;3.30;;;;;;;8.72;100.00;99817.94;5042569;28;20534;-53
2022/11/15 02:33:00;;;;;;;6.50;4.10;;;;;;;8.74;100.00;99809.03;5042827;28;20455;-55
2022/11/15 02:35:51;;;;;;;3.60;3.30;;;;;;;8.75;100.00;99802.81;5037405;28;20571;-55
2022/11/15 02:38:20;;;;;;;3.17;2.97;;;;;;;8.78;100.00;99797.47;5035991;28;20516;-54
2022/11/15 02:40:57;;;;;;;5.67;5.27;;;;;;;8.75;100.00;99801.97;5036994;28;20448;-54
2022/11/15 02:43:58;;;;;;;4.30;2.97;;;;;;;8.71;100.00;99790.59;5024380;28;20450;-55
2022/11/15 02:49:29;;;;;;;1.97;1.80;;;;;;;8.64;100.00;99781.09;5039369;28;20848;-55
2022/11/15 02:51:55;;;;;;;4.93;3.13;;;;;;;8.61;100.00;99784.69;5039979;28;20490;-55
2022/11/15 02:54:25;;;;;;;4.73;3.10;;;;;;;8.70;100.00;99785.34;5035682;28;20856;-55
2022/11/15 02:57:00;;;;;;;3.03;2.83;;;;;;;8.61;100.00;99784.69;5037438;28;20460;-55
2022/11/15 02:59:49;;;;;;;5.33;4.17;;;;;;;8.54;100.00;99785.78;5042217;28;20501;-53
2022/11/15 03:02:35;;;;;;;8.57;4.83;;;;;;;8.97;100.00;99789.81;5042402;28;20522;-54
2022/11/15 03:05:17;;;;;;;9.87;3.00;;;;;;;8.75;100.00;99786.91;5041087;28;20451;-54
2022/11/15 03:08:14;;;;;;;3.53;2.87;;;;;;;8.32;100.00;99782.81;5042414;28;20467;-54
2022/11/15 03:10:53;;;;;;;3.17;3.07;;;;;;;8.20;100.00;99782.28;5042240;28;20487;-54
2022/11/15 03:13:38;;;;;;;2.67;1.57;;;;;;;8.23;100.00;99782.22;5041407;28;20504;-54
2022/11/15 03:16:19;;;;;;;1.53;1.43;;;;;;;8.11;100.00;99780.78;5026258;28;20446;-54
2022/11/15 03:18:52;;;;;;;2.13;2.03;;;;;;;7.95;100.00;99779.44;5035334;28;20466;-54
2022/11/15 03:21:21;;;;;;;2.40;2.30;;;;;;;7.94;100.00;99773.25;5037132;28;20452;-55
2022/11/15 03:23:50;;;;;;;2.47;2.37;;;;;;;7.78;100.00;99777.22;5042071;28;20451;-53
2022/11/15 03:26:21;;;;;;;2.93;2.73;;;;;;;7.90;100.00;99774.25;5041238;28;20451;-54
2022/11/15 03:28:55;;;;;;;3.03;2.93;;;;;;;7.78;100.00;99773.69;5035058;28;20482;-54
2022/11/15 03:34:20;;;;;;;3.00;2.70;;;;;;;7.75;100.00;99782.59;5038160;28;20451;-54
2022/11/15 03:36:48;;;;;;;3.23;1.60;;;;;;;8.01;100.00;99780.13;5041801;28;20451;-54
2022/11/15 03:39:14;;;;;;;3.13;2.83;;;;;;;7.98;100.00;99772.28;5040867;28;20486;-53
2022/11/15 03:41:57;;;;;;;13.93;2.27;;;;;;;8.13;100.00;99781.59;5029061;28;20439;-53
2022/11/15 03:44:41;;;;;;;2.77;2.53;;;;;;;8.24;100.00;99783.97;5042110;28;20458;-54
2022/11/15 03:47:53;;;;;;;2.87;1.73;;;;;;;8.24;100.00;99778.66;5034482;28;20959;-54
2022/11/15 03:50:22;;;;;;;4.07;2.70;;;;;;;8.33;100.00;99779.25;5033312;28;20470;-54
2022/11/15 03:52:49;;;;;;;2.83;2.63;;;;;;;8.31;100.00;99780.22;5041710;28;20447;-54
2022/11/15 03:55:19;;;;;;;4.17;3.10;;;;;;;8.45;100.00;99777.22;5039809;28;20462;-54
2022/11/15 03:57:47;;;;;;;2.03;1.93;;;;;;;8.37;100.00;99773.94;5034810;28;20470;-54
2022/11/15 04:00:14;;;;;;;3.63;3.33;;;;;;;8.55;100.00;99778.69;5036356;28;20459;-54
2022/11/15 04:02:40;;;;;;;6.07;4.20;;;;;;;8.67;100.00;99783.66;5041592;28;20811;-53
2022/11/15 04:05:07;;;;;;;3.13;2.40;;;;;;;8.68;100.00;99785.38;5040601;28;20446;-54
2022/11/15 04:07:33;;;;;;;3.90;3.70;;;;;;;8.69;100.00;99791.53;5034586;28;20536;-54
2022/11/15 04:10:03;;;;;;;3.03;2.80;;;;;;;8.84;100.00;99776.06;5035797;28;20456;-54
2022/11/15 04:12:31;;;;;;;3.53;3.23;;;;;;;8.93;100.00;99776.72;5041592;28;20495;-54
2022/11/15 04:15:07;;;;;;;2.87;2.77;;;;;;;9.18;100.00;99781.22;5041620;28;20454;-53
2022/11/15 04:17:39;;;;;;;4.77;4.23;;;;;;;9.05;100.00;99785.16;5036443;28;20541;-55
2022/11/15 04:25:43;;;;;;;3.57;3.37;;;;;;;9.16;100.00;99783.03;5040758;28;20501;-54
2022/11/15 04:28:11;;;;;;;3.00;2.70;;;;;;;9.24;100.00;99780.16;5044651;28;20891;-54
2022/11/15 04:30:37;;;;;;;5.37;4.17;;;;;;;9.24;100.00;99779.28;5040311;28;20493;-54
2022/11/15 04:33:04;;;;;;;2.47;2.10;;;;;;;9.17;100.00;99762.69;5037557;28;20874;-54
2022/11/15 04:35:30;;;;;;;7.60;3.40;;;;;;;9.09;100.00;99760.28;5040933;28;20949;-54
2022/11/15 04:37:57;;;;;;;4.47;3.30;;;;;;;9.11;100.00;99753.16;5033864;28;20471;-54
2022/11/15 04:40:24;;;;;;;7.20;4.40;;;;;;;9.07;100.00;99755.94;5041970;28;20509;-53
2022/11/15 04:42:50;;;;;;;5.27;3.03;;;;;;;9.03;100.00;99749.84;5034203;28;20446;-54
2022/11/15 04:45:17;;;;;;;4.77;4.47;;;;;;;8.99;100.00;99740.28;5041527;28;20868;-54
2022/11/15 04:47:45;;;;;;;3.07;2.97;;;;;;;8.96;100.00;99742.16;5040376;28;20516;-54
2022/11/15 04:50:13;;;;;;;6.30;4.40;;;;;;;9.05;100.00;99739.22;5041275;28;20456;-54
2022/11/15 04:52:41;;;;;;;3.90;3.73;;;;;;;9.08;100.00;99731.19;5044356;28;20495;-53
2022/11/15 04:55:11;;;;;;;3.40;3.10;;;;;;;9.05;100.00;99725.97;5042158;28;20964;-55
2022/11/15 04:57:37;;;;;;;3.97;3.60;;;;;;;9.03;100.00;99723.34;5037334;28;20549;-53
2022/11/15 05:00:06;;;;;;;5.40;2.97;;;;;;;8.98;100.00;99727.06;5039684;28;20459;-54
2022/11/15 05:05:18;;;;;;;1.73;1.63;;;;;;;9.37;100.00;99730.25;5044295;28;20843;-55
2022/11/15 05:07:45;;;;;;;4.70;3.57;;;;;;;9.55;100.00;99728.75;5038676;28;20525;-54
2022/11/15 05:10:11;;;;;;;2.77;2.57;;;;;;;9.30;100.00;99720.72;5037984;28;20513;-53
2022/11/15 05:12:38;;;;;;;3.03;2.83;;;;;;;9.49;100.00;99722.75;5042824;28;20902;-54
2022/11/15 05:15:04;;;;;;;3.90;3.60;;;;;;;9.06;100.00;99731.22;5044319;28;20459;-52
2022/11/15 05:17:31;;;;;;;3.27;3.17;;;;;;;9.07;100.00;99729.44;5038858;28;20495;-54
2022/11/15 05:19:57;;;;;;;5.00;4.67;;;;;;;9.05;100.00;99731.28;5037273;28;20451;-55
2022/11/15 05:22:24;;;;;;;5.33;3.47;;;;;;;8.97;100.00;99730.63;5047300;28;20453;-55
2022/11/15 05:24:50;;;;;;;3.07;2.87;;;;;;;8.93;100.00;99743.13;5037233;28;20485;-54
2022/11/15 05:27:16;;;;;;;8.90;3.47;;;;;;;8.80;100.00;99747.06;5041821;28;20988;-54
2022/11/15 05:29:43;;;;;;;3.23;3.03;;;;;;;8.95;100.00;99753.69;5043677;28;20450;-53
2022/11/15 05:32:11;;;;;;;2.67;2.47;;;;;;;9.04;100.00;99751.59;5038982;28;20567;-53
2022/11/15 05:34:38;;;;;;;4.03;3.83;;;;;;;8.89;100.00;99744.13;5038012;28;20502;-53
2022/11/15 05:37:04;;;;;;;5.50;5.00;;;;;;;8.79;100.00;99747.97;5041085;28;20878;-54
2022/11/15 05:39:31;;;;;;;2.60;2.50;;;;;;;8.83;100.00;99746.97;5043318;28;20461;-54
2022/11/15 05:42:05;;;;;;;2.83;2.20;;;;;;;9.00;100.00;99749.97;5030390;28;20454;-54
2022/11/15 05:44:33;;;;;;;2.93;2.73;;;;;;;8.98;100.00;99746.50;5043752;28;20451;-54
2022/11/15 05:47:00;;;;;;;4.03;3.53;;;;;;;8.87;100.00;99741.50;5036400;28;20463;-54
2022/11/15 05:49:31;;;;;;;4.63;4.10;;;;;;;8.79;100.00;99740.03;5043327;28;20460;-54
2022/11/15 05:51:58;;;;;;;4.30;4.00;;;;;;;8.70;100.00;99740.28;5040860;28;20487;-54
2022/11/15 05:54:25;;;;;;;2.87;2.67;;;;;;;8.75;100.00;99747.19;5036183;28;20825;-54
2022/11/15 05:56:52;;;;;;;4.50;4.20;;;;;;;8.75;100.00;99747.19;5038964;28;20988;-54
2022/11/15 05:59:19;;;;;;;13.87;3.43;;;;;;;8.64;100.00;99740.50;5043292;28;20456;-54
2022/11/15 06:01:46;;;;;;;2.23;2.00;;;;;;;8.69;100.00;99747.38;5041063;28;20454;-54
2022/11/15 06:04:12;;;;;;;6.73;3.10;;;;;;;8.57;100.00;99742.44;5036531;28;20459;-54
2022/11/15 06:06:38;;;;;;;5.87;3.57;;;;;;;8.41;100.00;99727.91;5038410;28;20474;-54
2022/11/15 06:09:05;;;;;;;3.13;2.93;;;;;;;8.27;100.00;99721.19;5042688;28;20969;-55
2022/11/15 06:11:31;;;;;;;8.47;4.10;;;;;;;8.64;100.00;99735.19;5041238;28;20498;-54
2022/11/15 06:13:57;;;;;;;5.73;4.37;;;;;;;8.40;100.00;99728.81;5036323;28;20532;-53
2022/11/15 06:16:24;;;;;;;9.33;3.60;;;;;;;8.50;100.00;99728.53;5037543;28;20506;-54
2022/11/15 06:18:50;;;;;;;3.43;3.17;;;;;;;8.52;100.00;99737.28;5042848;28;20499;-55
2022/11/15 06:21:17;;;;;;;3.67;3.47;;;;;;;8.52;100.00;99731.13;5041127;28;20914;-54
2022/11/15 06:23:43;;;;;;;3.00;2.80;;;;;;;8.53;100.00;99748.75;5041139;28;21164;-55
2022/11/15 06:26:09;;;;;;;4.50;3.17;;;;;;;8.49;100.00;99753.22;5041129;28;20868;-55
2022/11/15 06:28:36;;;;;;;4.23;3.47;;;;;;;8.47;100.00;99740.97;5035855;28;20999;-54
2022/11/15 06:31:04;;;;;;;3.40;3.20;;;;;;;8.49;100.00;99742.63;5037719;28;20459;-54
2022/11/15 06:33:31;;;;;;;14.80;4.40;;;;;;;8.18;100.00;99741.75;5042996;28;21016;-55
2022/11/15 06:36:09;;;;;;;2.07;1.50;;;;;;;8.30;100.00;99750.22;5041475;28;20451;-54
2022/11/15 06:38:46;;;;;;;2.87;2.53;;;;;;;8.35;100.00;99754.53;5041158;28;20467;-55
2022/11/15 06:41:13;;;;;;;4.50;4.23;;;;;;;8.73;100.00;99748.16;5041805;28;20963;-55
2022/11/15 06:43:41;;;;;;;5.10;4.60;;;;;;;9.09;100.00;99751.47;5039053;28;20512;-55
2022/11/15 06:46:08;;;;;;;12.63;3.23;;;;;;;9.06;100.00;99746.28;5035755;28;20450;-54
2022/11/15 06:48:36;;;;;;;6.50;4.63;;;;;;;8.96;100.00;99747.47;5041503;28;20486;-53
2022/11/15 06:51:04;;;;;;;4.23;3.90;;;;;;;8.88;100.00;99745.91;5014723;28;20452;-54
2022/11/15 06:53:31;;;;;;;5.20;4.70;;;;;;;8.83;100.00;99755.78;5025636;28;20458;-54
2022/11/15 06:56:02;;;;;;;5.67;5.37;;;;;;;8.88;100.00;99756.50;5042681;28;20452;-54
2022/11/15 06:58:28;;;;;;;4.10;3.40;;;;;;;8.86;100.00;99750.38;5040390;28;20471;-55
2022/11/15 07:01:09;;;;;;;5.17;4.40;;;;;;;8.86;100.00;99747.72;5035266;28;20500;-54
2022/11/15 07:03:38;;;;;;;4.43;3.17;;;;;;;8.94;100.00;99750.16;5035919;28;20452;-53
2022/11/15 07:06:05;;;;;;;3.10;2.87;;;;;;;8.85;100.00;99746.00;5042247;28;20463;-54
2022/11/15 07:08:34;;;;;;;3.90;3.57;;;;;;;8.88;100.00;99747.69;5042170;28;21011;-55
2022/11/15 07:11:07;;;;;;;7.40;4.33;;;;;;;8.86;100.00;99749.50;5036956;28;20446;-55
2022/11/15 07:13:35;;;;;;;2.53;2.43;;;;;;;8.78;100.00;99747.13;5035457;28;20808;-55
2022/11/15 07:16:07;;;;;;;4.50;3.33;;;;;;;8.82;100.00;99739.94;5038589;28;20882;-54
2022/11/15 07:18:35;;;;;;;4.27;3.87;;;;;;;8.87;100.00;99743.28;5042275;28;20458;-55
2022/11/15 07:21:04;;;;;;;1.80;1.70;;;;;;;8.84;100.00;99738.09;5039021;28;20454;-53
2022/11/15 07:23:31;;;;;;;2.47;2.27;;;;;;;8.86;100.00;99747.72;5041586;28;20521;-54
2022/11/15 07:25:58;;;;;;;2.97;2.50;;;;;;;8.90;100.00;99744.06;5039010;28;20490;-54
2022/11/15 07:28:26;;;;;;;3.77;3.57;;;;;;;8.88;100.00;99750.31;5035369;28;20555;-54
2022/11/15 07:30:52;;;;;;;4.53;3.00;;;;;;;8.94;100.00;99744.84;5038241;28;20543;-54
2022/11/15 07:33:19;;;;;;;8.63;5.30;;;;;;;8.98;100.00;99748.28;5041717;28;20491;-54
2022/11/15 07:35:48;;;;;;;4.53;4.13;;;;;;;9.02;100.00;99750.78;5039239;28;20512;-54
2022/11/15 07:38:15;;;;;;;7.60;4.90;;;;;;;9.13;100.00;99764.56;5034783;28;20524;-54
2022/11/15 07:40:42;;;;;;;12.50;5.67;;;;;;;9.16;100.00;99753.84;5037234;28;21016;-55
2022/11/15 07:43:08;;;;;;;5.60;5.30;;;;;;;9.16;100.00;99756.50;5033946;28;20505;-54
2022/11/15 07:45:44;;;;;;;16.60;3.90;;;;;;;9.24;100.00;99748.31;5036568;28;20456;-54
2022/11/15 07:48:11;;;;;;;3.73;3.33;;;;;;;9.29;100.00;99761.44;5041657;28;20473;-54
2022/11/15 07:50:41;;;;;;;5.43;4.03;;;;;;;9.31;100.00;99751.63;5034843;28;20960;-53
2022/11/15 07:53:09;;;;;;;4.67;3.57;;;;;;;9.27;100.00;99753.53;5040825;28;20486;-54
2022/11/15 07:55:35;;;;;;;2.70;2.50;;;;;;;9.26;100.00;99745.63;5041875;28;20864;-55
2022/11/15 07:58:04;;;;;;;3.27;3.00;;;;;;;9.34;100.00;99749.78;5036297;28;21003;-53
2022/11/15 08:00:30;;;;;;;4.63;4.20;;;;;;;9.34;100.00;99749.78;5040558;28;20452;-54
2022/11/15 08:03:08;;;;;;;4.20;2.70;;;;;;;9.34;100.00;99752.44;5045573;28;20455;-55
2022/11/15 08:05:36;;;;;;;3.27;2.97;;;;;;;9.39;100.00;99760.22;5045296;28;20463;-55
2022/11/15 08:08:03;;;;;;;2.83;2.60;;;;;;;9.48;100.00;99755.50;5041353;28;21022;-54
2022/11/15 08:10:30;;;;;;;2.43;2.30;;;;;;;9.49;100.00;99757.22;5038521;28;20451;-54
2022/11/15 08:13:08;;;;;;;3.00;2.53;;;;;;;9.45;100.00;99758.22;5042534;28;20518;-54
2022/11/15 08:15:35;;;;;;;5.03;2.67;;;;;;;9.43;100.00;99752.09;5045227;28;20980;-55
2022/11/15 08:18:04;;;;;;;2.97;2.77;;;;;;;9.49;100.00;99751.94;5042946;28;20479;-55
2022/11/15 08:20:31;;;;;;;3.53;3.23;;;;;;;9.46;100.00;99737.91;5038437;28;20458;-53
2022/11/15 08:22:59;;;;;;;4.60;4.20;;;;;;;9.54;100.00;99746.47;5049485;28;20451;-54
2022/11/15 08:25:28;;;;;;;8.60;4.83;;;;;;;9.56;100.00;99741.97;5038327;28;20492;-55
2022/11/15 08:27:57;;;;;;;10.37;5.73;;;;;;;9.64;100.00;99739.94;5038561;28;20544;-53
2022/11/15 08:30:24;;;;;;;5.90;4.83;;;;;;;9.71;100.00;99745.88;5045424;28;20455;-52
2022/11/15 08:32:52;;;;;;;5.87;5.30;;;;;;;9.72;100.00;99739.66;5032412;28;20491;-53
2022/11/15 08:35:20;;;;;;;4.57;3.80;;;;;;;9.80;100.00;99737.63;5038734;28;20450;-53
2022/11/15 08:37:54;;;;;;;7.77;5.13;;;;;;;9.90;100.00;99733.75;5037831;28;20467;-53
2022/11/15 08:40:20;;;;;;;4.43;4.13;;;;;;;9.86;100.00;99734.75;5039844;28;20948;-52
2022/11/15 08:42:47;;;;;;;4.03;3.73;;;;;;;10.02;100.00;99740.41;5038758;28;20439;-53
2022/11/15 08:45:13;;;;;;;4.37;3.97;;;;;;;10.01;100.00;99736.88;5043279;28;20451;-53
2022/11/15 08:47:40;;;;;;;5.80;4.70;;;;;;;10.07;100.00;99731.34;5038865;28;20475;-52
2022/11/15 08:50:07;;;;;;;7.43;4.20;;;;;;;10.03;100.00;99734.19;5041281;28;20877;-53
2022/11/15 08:52:33;;;;;;;4.90;4.17;;;;;;;10.19;100.00;99737.16;5041430;28;20524;-53
2022/11/15 08:55:00;;;;;;;6.60;5.00;;;;;;;10.14;100.00;99731.97;5042493;28;21017;-53
2022/11/15 08:57:29;;;;;;;6.50;4.30;;;;;;;10.38;100.00;99735.59;5045477;28;20847;-52
2022/11/15 08:59:56;;;;;;;3.37;3.07;;;;;;;10.65;100.00;99737.22;5042004;28;20455;-53
2022/11/15 09:02:23;;;;;;;6.83;4.00;;;;;;;10.43;100.00;99727.47;5021936;28;20456;-53
2022/11/15 09:04:49;;;;;;;4.77;4.03;;;;;;;10.44;100.00;99737.16;5031913;28;20452;-53
2022/11/15 09:07:16;;;;;;;5.33;4.30;;;;;;;10.44;100.00;99727.41;5045133;28;20541;-53
2022/11/15 09:09:43;;;;;;;6.03;4.30;;;;;;;10.46;100.00;99719.38;5042157;28;20451;-54
2022/11/15 09:12:09;;;;;;;4.10;3.00;;;;;;;10.55;100.00;99727.88;5047573;28;20859;-53
2022/11/15 09:14:36;;;;;;;4.10;3.77;;;;;;;10.54;100.00;99715.47;5031814;28;20514;-53
2022/11/15 09:17:02;;;;;;;10.20;4.90;;;;;;;10.59;100.00;99710.00;5048869;28;20486;-53
2022/11/15 09:19:29;;;;;;;4.97;4.57;;;;;;;10.76;100.00;99712.88;5051810;28;20446;-54
2022/11/15 09:21:55;;;;;;;4.67;4.27;;;;;;;10.77;100.00;99706.63;5037336;28;20505;-55
2022/11/15 09:24:22;;;;;;;9.37;4.50;;;;;;;10.91;100.00;99712.28;5042194;28;20453;-53
2022/11/15 09:26:50;;;;;;;4.73;4.00;;;;;;;10.80;100.00;99711.84;5033313;28;20456;-51
2022/11/15 09:29:17;;;;;;;6.80;3.77;;;;;;;10.82;100.00;99709.97;5041963;28;20478;-53
2022/11/15 09:31:44;;;;;;;7.33;4.27;;;;;;;10.87;100.00;99708.03;5037493;28;21002;-53
2022/11/15 09:34:11;;;;;;;4.47;4.03;;;;;;;10.83;100.00;99706.41;5039816;28;20456;-53
2022/11/15 09:36:37;;;;;;;11.80;6.10;;;;;;;10.86;100.00;99708.94;5035837;28;20823;-53
2022/11/15 09:39:04;;;;;;;7.37;5.60;;;;;;;10.83;100.00;99701.09;5039320;28;20471;-53
2022/11/15 09:41:42;;;;;;;7.03;4.50;;;;;;;10.87;100.00;99705.38;5043993;28;20452;-53
2022/11/15 09:44:17;;;;;;;4.87;3.10;;;;;;;10.92;100.00;99702.50;5044904;28;20446;-53
2022/11/15 09:47:08;;;;;;;5.77;4.50;;;;;;;11.00;100.00;99707.53;5039170;28;20454;-54
2022/11/15 09:49:35;;;;;;;3.93;3.40;;;;;;;10.99;100.00;99706.69;5042703;28;20459;-54
2022/11/15 09:52:02;;;;;;;4.13;3.90;;;;;;;11.12;100.00;99713.25;5041999;28;20995;-54
2022/11/15 09:54:35;;;;;;;3.83;3.40;;;;;;;11.08;100.00;99714.28;5046020;28;20456;-53
2022/11/15 09:57:38;;;;;;;20.03;4.13;;;;;;;11.08;100.00;99711.59;5032624;28;20495;-54
2022/11/15 10:00:24;;;;;;;4.40;2.73;;;;;;;11.09;100.00;99712.47;5040211;28;20452;-53
2022/11/15 10:03:18;;;;;;;5.33;4.77;;;;;;;11.10;100.00;99708.88;5040952;28;20525;-54
2022/11/15 10:05:50;;;;;;;9.20;5.07;;;;;;;11.11;100.00;99705.31;5044135;28;20444;-54
2022/11/15 10:08:19;;;;;;;15.27;5.33;;;;;;;11.09;100.00;99707.16;5042497;28;20478;-54
2022/11/15 10:10:49;;;;;;;4.60;4.30;;;;;;;11.11;100.00;99710.66;5036917;28;21002;-53
2022/11/15 10:13:40;;;;;;;9.57;7.07;;;;;;;11.08;100.00;99711.59;5037317;28;20572;-54
2022/11/15 10:16:24;;;;;;;6.10;5.60;;;;;;;11.22;100.00;99703.06;5041292;28;20444;-53
2022/11/15 10:19:17;;;;;;;5.50;4.20;;;;;;;11.46;100.00;99687.91;5043552;28;20525;-54
2022/11/15 10:22:14;;;;;;;11.13;5.10;;;;;;;11.34;100.00;99680.44;5042114;28;20458;-53
2022/11/15 10:24:45;;;;;;;6.00;3.40;;;;;;;11.25;100.00;99679.03;5023150;28;20451;-54
2022/11/15 10:27:17;;;;;;;6.20;5.70;;;;;;;11.31;100.00;99673.44;5025468;28;21172;-53
2022/11/15 10:29:45;;;;;;;5.90;5.07;;;;;;;11.31;100.00;99665.47;5037815;28;20448;-53
2022/11/15 10:32:13;;;;;;;6.13;4.63;;;;;;;11.30;100.00;99669.06;5042270;28;20499;-53
2022/11/15 10:34:40;;;;;;;4.23;3.80;;;;;;;11.40;100.00;99667.75;5043720;28;20455;-53
2022/11/15 10:37:06;;;;;;;6.17;5.00;;;;;;;11.46;100.00;99659.50;5038494;28;21009;-55
2022/11/15 10:39:35;;;;;;;7.37;4.70;;;;;;;11.46;100.00;99646.19;5048565;28;20939;-54
2022/11/15 10:42:25;;;;;;;8.67;6.50;;;;;;;11.52;100.00;99650.41;5030134;28;20497;-53
2022/11/15 10:44:51;;;;;;;17.47;5.27;;;;;;;11.62;100.00;99640.19;5030791;28;20526;-54
2022/11/15 10:47:32;;;;;;;10.10;5.57;;;;;;;11.69;100.00;99621.25;5036329;28;20499;-53
2022/11/15 10:50:26;;;;;;;6.70;6.23;;;;;;;11.75;100.00;99620.97;5038746;28;20967;-54
2022/11/15 10:52:54;;;;;;;5.50;4.90;;;;;;;11.84;100.00;99601.09;5034550;28;20491;-55
2022/11/15 10:55:25;;;;;;;19.70;5.80;;;;;;;11.92;100.00;99604.25;5042208;28;20944;-53
2022/11/15 10:57:55;;;;;;;6.63;4.43;;;;;;;12.06;100.00;99590.31;5036522;28;20471;-54
2022/11/15 11:00:29;;;;;;;6.80;5.60;;;;;;;12.23;100.00;99586.91;5024259;28;20853;-54
2022/11/15 11:02:56;;;;;;;6.37;5.67;;;;;;;12.37;100.00;99584.44;5025181;28;20446;-54
2022/11/15 11:05:33;;;;;;;5.00;4.00;;;;;;;12.54;100.00;99579.16;5036009;28;21014;-54
2022/11/15 11:08:23;;;;;;;5.83;4.77;;;;;;;12.78;100.00;99577.13;5039223;28;20470;-55
2022/11/15 11:10:56;;;;;;;5.37;4.43;;;;;;;12.88;100.00;99574.84;5035958;28;20455;-56
2022/11/15 11:13:31;;;;;;;4.40;4.00;;;;;;;13.01;100.00;99573.28;5035753;28;20491;-58
2022/11/15 11:16:13;;;;;;;3.30;2.43;;;;;;;13.04;100.00;99575.84;5041168;28;20513;-56
2022/11/15 11:18:56;;;;;;;2.97;2.77;;;;;;;13.07;100.00;99575.66;5042357;28;20529;-56
2022/11/15 11:21:39;;;;;;;2.87;2.00;;;;;;;13.22;100.00;99574.06;5041309;28;20469;-56
2022/11/15 11:24:32;;;;;;;1.50;1.40;;;;;;;13.33;100.00;99569.03;5038693;28;20933;-56
2022/11/15 11:27:28;;;;;;;2.70;2.13;;;;;;;13.38;100.00;99572.31;5017502;28;20458;-56
2022/11/15 11:30:08;;;;;;;3.03;2.83;;;;;;;13.42;100.00;99567.69;5035592;28;20816;-56
2022/11/15 11:32:49;;;;;;;3.07;1.83;;;;;;;13.29;100.00;99556.78;5038378;28;20525;-55
2022/11/15 11:35:26;;;;;;;21.93;2.50;;;;;;;13.48;100.00;99554.03;5045012;28;20489;-56
2022/11/15 11:38:00;;;;;;;6.93;3.23;;;;;;;13.36;100.00;99560.00;5046426;28;20474;-55
2022/11/15 11:40:34;;;;;;;2.00;1.87;;;;;;;13.27;100.00;99553.31;5041748;28;20839;-56
2022/11/15 11:43:13;;;;;;;7.57;3.73;;;;;;;13.43;100.00;99546.28;5039517;28;20938;-56
2022/11/15 11:45:57;;;;;;;3.03;2.83;;;;;;;13.57;100.00;99553.56;5040196;28;20447;-55
2022/11/15 11:48:40;;;;;;;5.87;2.47;;;;;;;13.42;100.00;99543.66;5036508;28;20957;-55
2022/11/15 11:51:20;;;;;;;4.07;3.70;;;;;;;13.21;100.00;99542.97;5039022;28;20922;-55
2022/11/15 11:53:58;;;;;;;3.10;2.23;;;;;;;13.38;100.00;99540.28;5040007;28;20491;-54
2022/11/15 11:56:29;;;;;;;4.73;2.60;;;;;;;13.24;100.00;99538.34;5027886;28;20478;-55
2022/11/15 11:59:05;;;;;;;29.47;3.10;;;;;;;13.22;100.00;99534.03;5038824;28;20475;-54
2022/11/15 12:01:37;;;;;;;4.80;2.63;;;;;;;13.20;100.00;99523.44;5042719;28;20451;-56